Time;durP1;ratioP1;P1;durP2;ratioP2;P2;SDS_P1;SDS_P2;PMS_P1;PMS_P2;Temp;Humidity;BMP_temperature;BMP_pressure;BME280_temperature;BME280_humidity;BME280_pressure;Samples;Min_cycle;Max_cycle;Signal;HPM_P1;HPM_P2
2022/09/30 00:01:33;;;;;;;5.20;4.03;;;9.00;99.90;;;;;;5056384;28;20520;-80
2022/09/30 00:03:59;;;;;;;4.80;3.92;;;9.00;99.90;;;;;;5056592;28;20048;-80
2022/09/30 00:06:26;;;;;;;4.88;4.05;;;9.00;99.90;;;;;;5050358;28;20036;-79
2022/09/30 00:08:52;;;;;;;4.65;3.55;;;9.10;99.90;;;;;;5056724;28;20053;-80
2022/09/30 00:11:21;;;;;;;7.70;3.95;;;9.10;99.90;;;;;;5057563;28;20056;-78
2022/09/30 00:13:49;;;;;;;4.82;4.32;;;9.10;99.90;;;;;;5053883;28;20389;-80
2022/09/30 00:16:16;;;;;;;3.47;3.17;;;9.10;99.90;;;;;;5088405;28;20139;-79
2022/09/30 00:18:43;;;;;;;4.15;3.75;;;9.00;99.90;;;;;;5054533;28;20123;-80
2022/09/30 00:21:10;;;;;;;3.60;3.30;;;9.00;99.90;;;;;;5052557;28;20095;-81
2022/09/30 00:23:37;;;;;;;4.30;3.58;;;8.90;99.90;;;;;;5057136;28;20048;-80
2022/09/30 00:26:06;;;;;;;5.40;3.50;;;8.90;99.90;;;;;;5090200;28;20173;-81
2022/09/30 00:28:32;;;;;;;3.95;3.53;;;8.80;99.90;;;;;;5049182;28;20127;-79
2022/09/30 00:31:00;;;;;;;4.63;3.72;;;8.70;99.90;;;;;;5055968;28;20044;-78
2022/09/30 00:33:26;;;;;;;4.25;3.28;;;8.70;99.90;;;;;;5055830;28;20795;-79
2022/09/30 00:35:52;;;;;;;3.80;3.40;;;8.70;99.90;;;;;;5053650;28;20052;-79
2022/09/30 00:38:17;;;;;;;3.30;2.97;;;8.70;99.90;;;;;;5054579;28;20080;-78
2022/09/30 00:40:43;;;;;;;3.92;3.63;;;8.70;99.90;;;;;;5089689;28;20043;-80
2022/09/30 00:43:14;;;;;;;4.40;3.58;;;8.70;99.90;;;;;;5052447;28;20063;-81
2022/09/30 00:45:48;;;;;;;3.88;3.08;;;8.70;99.90;;;;;;5054221;28;20138;-80
2022/09/30 00:48:19;;;;;;;3.45;2.72;;;8.70;99.90;;;;;;5056818;28;20048;-78
2022/09/30 00:50:54;;;;;;;2.28;2.08;;;8.60;99.90;;;;;;5052368;28;20045;-78
2022/09/30 00:53:33;;;;;;;3.60;3.17;;;8.70;99.90;;;;;;5054212;28;20559;-81
2022/09/30 00:56:10;;;;;;;2.83;2.55;;;8.40;99.90;;;;;;5052753;28;20052;-80
2022/09/30 00:58:47;;;;;;;3.30;3.00;;;8.30;99.90;;;;;;5087484;28;20541;-79
2022/09/30 01:01:13;;;;;;;2.90;2.70;;;8.30;99.90;;;;;;5055825;28;20122;-79
2022/09/30 01:04:00;;;;;;;3.33;3.03;;;8.20;99.90;;;;;;5056423;28;20048;-80
2022/09/30 01:06:26;;;;;;;2.67;2.47;;;8.10;99.90;;;;;;5055456;28;20845;-81
2022/09/30 01:08:54;;;;;;;5.05;3.00;;;8.00;99.90;;;;;;5055206;28;20060;-80
2022/09/30 01:11:20;;;;;;;3.92;3.30;;;8.00;99.90;;;;;;5056205;28;20051;-80
2022/09/30 01:13:51;;;;;;;4.38;3.00;;;8.00;99.90;;;;;;5053906;28;20605;-80
2022/09/30 01:16:25;;;;;;;4.78;2.40;;;8.10;99.90;;;;;;5051919;28;20048;-79
2022/09/30 01:19:18;;;;;;;3.13;2.63;;;8.00;99.90;;;;;;5054043;28;20051;-80
2022/09/30 01:21:56;;;;;;;4.97;3.15;;;8.00;99.90;;;;;;5053858;28;20052;-79
2022/09/30 01:24:28;;;;;;;7.28;3.47;;;8.00;99.90;;;;;;5083624;28;20911;-79
2022/09/30 01:26:59;;;;;;;2.72;2.50;;;8.00;99.90;;;;;;5054105;28;20076;-81
2022/09/30 01:29:42;;;;;;;3.17;2.70;;;8.00;99.90;;;;;;5054156;28;20048;-80
2022/09/30 01:32:30;;;;;;;3.17;2.65;;;7.90;99.90;;;;;;5055665;28;20150;-80
2022/09/30 01:34:58;;;;;;;6.40;3.35;;;7.80;99.90;;;;;;5052759;28;20060;-80
2022/09/30 01:37:48;;;;;;;3.55;3.05;;;7.80;99.90;;;;;;5051628;28;20383;-79
2022/09/30 01:40:34;;;;;;;3.35;3.05;;;7.70;99.90;;;;;;5055684;28;20040;-80
2022/09/30 01:43:18;;;;;;;3.38;3.08;;;7.70;99.90;;;;;;5084378;27;20867;-79
2022/09/30 01:45:57;;;;;;;6.40;3.30;;;7.70;99.90;;;;;;5051551;28;20956;-78
2022/09/30 01:48:44;;;;;;;3.05;2.75;;;7.80;99.90;;;;;;5054745;28;20825;-80
2022/09/30 01:51:36;;;;;;;4.78;4.35;;;7.70;99.90;;;;;;5054594;28;20764;-80
2022/09/30 01:54:08;;;;;;;4.82;4.22;;;7.80;99.90;;;;;;5055068;28;20619;-80
2022/09/30 01:56:57;;;;;;;4.13;3.50;;;7.90;99.90;;;;;;5055828;28;20127;-79
2022/09/30 01:59:44;;;;;;;4.50;4.03;;;8.10;99.90;;;;;;5052086;28;20044;-80
2022/09/30 02:02:18;;;;;;;4.43;3.60;;;7.90;99.90;;;;;;5056050;28;20444;-80
2022/09/30 02:05:04;;;;;;;4.15;3.67;;;7.90;99.90;;;;;;5053243;28;20045;-79
2022/09/30 02:07:42;;;;;;;3.78;3.47;;;7.90;99.90;;;;;;5052780;28;20067;-81
2022/09/30 02:10:19;;;;;;;3.72;3.42;;;7.90;99.90;;;;;;5052863;28;20045;-79
2022/09/30 02:12:57;;;;;;;3.53;3.22;;;7.80;99.90;;;;;;5054116;28;20052;-80
2022/09/30 02:15:29;;;;;;;4.40;3.33;;;7.80;99.90;;;;;;5051212;28;20078;-78
2022/09/30 02:18:03;;;;;;;3.40;2.80;;;7.70;99.90;;;;;;5053274;28;20091;-80
2022/09/30 02:20:37;;;;;;;3.72;3.30;;;7.70;99.90;;;;;;5054480;28;20044;-80
2022/09/30 02:23:21;;;;;;;3.45;3.15;;;7.80;99.90;;;;;;5082793;28;20057;-80
2022/09/30 02:25:52;;;;;;;3.45;3.15;;;7.70;99.90;;;;;;5056835;28;20040;-82
2022/09/30 02:28:28;;;;;;;5.43;3.67;;;7.80;99.90;;;;;;5055044;28;20130;-78
2022/09/30 02:30:58;;;;;;;3.70;3.40;;;7.70;99.90;;;;;;5054277;28;20581;-80
2022/09/30 02:33:30;;;;;;;4.30;3.55;;;7.70;99.90;;;;;;5086676;28;20045;-79
2022/09/30 02:36:04;;;;;;;4.47;3.88;;;7.70;99.90;;;;;;5052607;28;20044;-80
2022/09/30 02:38:35;;;;;;;4.50;4.10;;;7.70;99.90;;;;;;5051726;28;20052;-80
2022/09/30 02:41:21;;;;;;;5.07;4.20;;;7.70;99.90;;;;;;5054033;28;20107;-80
2022/09/30 02:43:48;;;;;;;4.93;4.05;;;7.70;99.90;;;;;;5034941;28;20161;-79
2022/09/30 02:46:20;;;;;;;5.60;4.38;;;7.70;99.90;;;;;;5056137;28;20135;-80
2022/09/30 02:48:48;;;;;;;4.72;4.13;;;7.70;99.90;;;;;;5085123;28;20056;-78
2022/09/30 02:51:21;;;;;;;3.92;3.58;;;7.70;99.90;;;;;;5072001;28;20052;-80
2022/09/30 02:54:01;;;;;;;5.50;4.35;;;7.70;99.90;;;;;;5082517;28;20053;-79
2022/09/30 02:56:59;;;;;;;4.07;3.67;;;7.70;99.90;;;;;;5048701;28;20041;-79
2022/09/30 02:59:25;;;;;;;4.53;3.92;;;7.70;99.90;;;;;;5050384;28;20417;-78
2022/09/30 03:01:51;;;;;;;4.72;3.92;;;7.60;99.90;;;;;;5051547;28;20044;-79
2022/09/30 03:04:22;;;;;;;4.90;4.40;;;7.60;99.90;;;;;;5086258;28;20086;-79
2022/09/30 03:06:48;;;;;;;6.13;3.45;;;7.50;99.90;;;;;;5055633;28;20052;-80
2022/09/30 03:09:14;;;;;;;4.57;3.90;;;7.50;99.90;;;;;;5054860;28;20057;-79
2022/09/30 03:11:40;;;;;;;4.55;4.10;;;7.50;99.90;;;;;;5055968;28;20094;-79
2022/09/30 03:14:33;;;;;;;4.35;3.83;;;7.40;99.90;;;;;;5052896;28;20040;-79
2022/09/30 03:17:33;;;;;;;4.45;4.03;;;7.40;99.90;;;;;;5050200;28;20074;-78
2022/09/30 03:20:33;;;;;;;3.60;2.88;;;7.40;99.90;;;;;;5049970;28;20173;-80
2022/09/30 03:23:19;;;;;;;16.75;4.82;;;7.30;99.90;;;;;;5072452;28;20088;-80
2022/09/30 03:26:11;;;;;;;11.38;5.07;;;7.20;99.90;;;;;;5052240;28;20044;-80
2022/09/30 03:28:51;;;;;;;4.07;3.30;;;7.20;99.90;;;;;;5052757;28;20075;-79
2022/09/30 03:31:37;;;;;;;3.88;3.58;;;7.40;99.90;;;;;;5055583;28;20108;-79
2022/09/30 03:34:17;;;;;;;3.63;3.33;;;7.10;99.90;;;;;;5057767;28;20561;-78
2022/09/30 03:37:07;;;;;;;3.70;3.25;;;7.20;99.90;;;;;;5055844;28;20052;-80
2022/09/30 03:39:45;;;;;;;58.55;10.95;;;7.20;99.90;;;;;;5042657;28;20133;-79
2022/09/30 03:42:34;;;;;;;31.48;6.90;;;7.30;99.90;;;;;;5055546;28;20048;-79
2022/09/30 03:45:23;;;;;;;44.00;7.13;;;7.30;99.90;;;;;;5048654;28;20071;-79
2022/09/30 03:47:54;;;;;;;49.67;7.70;;;7.40;99.90;;;;;;5045571;28;20059;-79
2022/09/30 03:50:23;;;;;;;17.20;5.10;;;7.40;99.90;;;;;;5055642;28;20169;-80
2022/09/30 03:52:49;;;;;;;22.95;5.70;;;8.40;99.90;;;;;;5055388;28;20079;-80
2022/09/30 03:55:16;;;;;;;31.77;5.60;;;7.50;99.90;;;;;;5056469;28;20048;-79
2022/09/30 03:57:43;;;;;;;31.60;5.97;;;7.40;99.90;;;;;;5053760;28;20080;-80
2022/09/30 04:00:11;;;;;;;8.40;3.45;;;7.40;99.90;;;;;;5047697;28;20052;-80
2022/09/30 04:02:37;;;;;;;8.23;4.30;;;7.40;99.90;;;;;;5056297;28;20391;-79
2022/09/30 04:05:05;;;;;;;6.35;3.25;;;7.40;99.90;;;;;;5088502;28;20159;-79
2022/09/30 04:07:31;;;;;;;6.70;4.10;;;7.40;99.90;;;;;;5059615;28;20231;-79
2022/09/30 04:09:57;;;;;;;6.70;3.42;;;7.40;99.90;;;;;;5051399;28;20881;-78
2022/09/30 04:12:22;;;;;;;4.75;3.08;;;7.40;99.90;;;;;;5046482;28;20061;-79
2022/09/30 04:14:48;;;;;;;6.20;3.55;;;7.30;99.90;;;;;;5055138;28;20041;-79
2022/09/30 04:17:14;;;;;;;2.67;2.42;;;7.30;99.90;;;;;;5059437;28;20135;-79
2022/09/30 04:19:40;;;;;;;3.22;2.97;;;7.20;99.90;;;;;;5059050;28;20040;-79
2022/09/30 04:22:06;;;;;;;3.80;3.05;;;7.20;99.90;;;;;;5041703;28;20147;-78
2022/09/30 04:24:32;;;;;;;2.97;2.67;;;7.20;99.90;;;;;;5055755;28;20053;-78
2022/09/30 04:26:59;;;;;;;6.28;3.38;;;7.20;99.90;;;;;;5061020;28;20058;-80
2022/09/30 04:29:24;;;;;;;3.40;3.13;;;7.20;99.90;;;;;;5091387;28;20143;-77
2022/09/30 04:31:50;;;;;;;3.13;2.92;;;7.20;99.90;;;;;;5060909;28;20040;-79
2022/09/30 04:34:16;;;;;;;3.40;2.38;;;7.10;99.90;;;;;;5058668;28;20642;-79
2022/09/30 04:36:42;;;;;;;2.92;2.72;;;7.10;99.90;;;;;;5058608;28;20109;-80
2022/09/30 04:39:08;;;;;;;3.67;2.63;;;7.00;99.90;;;;;;5047690;28;20064;-78
2022/09/30 04:41:33;;;;;;;3.28;2.97;;;7.00;99.90;;;;;;5057202;28;20045;-78
2022/09/30 04:44:04;;;;;;;3.40;3.10;;;7.20;99.90;;;;;;5052550;28;20052;-80
2022/09/30 04:46:31;;;;;;;4.28;3.33;;;6.90;99.90;;;;;;5052629;28;20052;-77
2022/09/30 04:48:57;;;;;;;4.35;2.72;;;6.90;99.90;;;;;;5090477;28;20057;-78
2022/09/30 04:51:22;;;;;;;3.92;3.63;;;7.00;99.90;;;;;;5051791;28;20648;-78
2022/09/30 04:53:48;;;;;;;5.43;3.40;;;6.90;99.90;;;;;;5052901;28;20135;-79
2022/09/30 04:56:18;;;;;;;5.75;3.35;;;7.00;99.90;;;;;;5049553;28;20639;-79
2022/09/30 04:58:44;;;;;;;3.97;3.53;;;6.90;99.90;;;;;;5051285;28;20082;-78
2022/09/30 05:01:12;;;;;;;9.10;4.18;;;6.90;99.90;;;;;;5049991;28;20457;-79
2022/09/30 05:03:39;;;;;;;3.88;3.58;;;6.90;99.90;;;;;;5051696;28;20885;-81
2022/09/30 05:06:05;;;;;;;4.47;4.07;;;6.80;99.90;;;;;;5057251;28;20063;-80
2022/09/30 05:08:32;;;;;;;3.90;3.60;;;6.80;99.90;;;;;;5045966;28;20529;-81
2022/09/30 05:11:09;;;;;;;4.20;3.55;;;6.80;99.90;;;;;;5049041;28;20052;-81
2022/09/30 05:13:37;;;;;;;4.32;3.92;;;6.90;99.90;;;;;;5055751;28;20059;-81
2022/09/30 05:16:04;;;;;;;5.15;4.65;;;6.90;99.90;;;;;;5051355;28;20130;-81
2022/09/30 05:18:32;;;;;;;5.07;4.03;;;6.90;99.90;;;;;;5051879;28;20044;-82
2022/09/30 05:20:57;;;;;;;6.05;4.07;;;6.90;99.90;;;;;;5054294;28;20048;-82
2022/09/30 05:23:25;;;;;;;3.53;3.20;;;6.80;99.90;;;;;;5057482;28;20098;-82
2022/09/30 05:25:51;;;;;;;4.15;3.75;;;6.80;99.90;;;;;;5053574;28;20037;-81
2022/09/30 05:28:17;;;;;;;8.13;4.32;;;6.80;99.90;;;;;;5056622;28;20323;-79
2022/09/30 05:30:44;;;;;;;4.78;3.45;;;6.80;99.90;;;;;;5053466;28;20127;-82
2022/09/30 05:33:11;;;;;;;8.07;3.50;;;7.20;99.90;;;;;;5057028;28;20051;-81
2022/09/30 05:35:39;;;;;;;27.65;5.88;;;6.70;99.90;;;;;;5052203;28;20040;-80
2022/09/30 05:38:05;;;;;;;11.60;3.78;;;6.80;99.90;;;;;;5051791;28;21718;-81
2022/09/30 05:40:31;;;;;;;39.15;6.70;;;7.70;99.90;;;;;;5085773;27;20042;-82
2022/09/30 05:42:58;;;;;;;24.00;4.47;;;7.20;99.90;;;;;;5056178;28;20056;-80
2022/09/30 05:45:24;;;;;;;12.43;3.33;;;6.80;99.90;;;;;;5055982;28;20063;-80
2022/09/30 05:47:51;;;;;;;12.68;3.30;;;6.80;99.90;;;;;;5056025;28;20079;-81
2022/09/30 05:50:17;;;;;;;6.47;2.88;;;6.70;99.90;;;;;;5056457;28;20044;-78
2022/09/30 05:52:43;;;;;;;4.13;3.00;;;6.70;99.90;;;;;;5055742;28;20051;-80
2022/09/30 05:55:08;;;;;;;12.25;3.88;;;6.80;99.90;;;;;;5054440;28;20489;-79
2022/09/30 05:57:35;;;;;;;8.93;3.85;;;6.80;99.90;;;;;;5053656;28;20041;-79
2022/09/30 06:00:00;;;;;;;6.28;3.72;;;7.20;99.90;;;;;;5054258;28;20839;-79
2022/09/30 06:02:26;;;;;;;4.75;3.17;;;6.80;99.90;;;;;;5053615;28;20044;-79
2022/09/30 06:04:52;;;;;;;2.70;2.47;;;6.80;99.90;;;;;;5052963;28;20048;-78
2022/09/30 06:07:17;;;;;;;6.50;3.03;;;7.40;99.90;;;;;;5050654;28;20045;-80
2022/09/30 06:09:44;;;;;;;5.70;3.40;;;6.80;99.90;;;;;;5051558;28;20568;-80
2022/09/30 06:12:10;;;;;;;3.70;3.20;;;6.90;99.90;;;;;;5053782;28;20044;-80
2022/09/30 06:14:36;;;;;;;3.00;2.75;;;6.80;99.90;;;;;;5047966;28;20053;-81
2022/09/30 06:17:02;;;;;;;4.03;3.63;;;6.90;99.90;;;;;;5052144;28;20064;-79
2022/09/30 06:19:29;;;;;;;7.75;3.90;;;6.90;99.90;;;;;;5049955;28;20045;-78
2022/09/30 06:21:55;;;;;;;10.70;3.85;;;7.00;99.90;;;;;;5051216;28;20060;-79
2022/09/30 06:24:21;;;;;;;10.45;4.60;;;6.90;99.90;;;;;;5051349;28;20120;-79
2022/09/30 06:26:47;;;;;;;4.25;3.90;;;7.00;99.90;;;;;;5050695;28;20036;-79
2022/09/30 06:29:13;;;;;;;4.70;4.18;;;7.00;99.90;;;;;;5054227;28;20098;-79
2022/09/30 06:31:39;;;;;;;4.00;3.63;;;7.40;99.90;;;;;;5051973;28;20050;-80
2022/09/30 06:34:05;;;;;;;3.78;3.47;;;7.40;99.90;;;;;;5053668;28;20040;-79
2022/09/30 06:36:32;;;;;;;4.05;3.65;;;7.50;99.90;;;;;;5051994;28;20075;-80
2022/09/30 06:38:59;;;;;;;5.68;4.22;;;7.60;99.90;;;;;;5084866;28;20055;-80
2022/09/30 06:41:26;;;;;;;8.10;4.47;;;7.70;99.90;;;;;;5053241;28;20055;-81
2022/09/30 06:43:52;;;;;;;13.40;4.63;;;7.80;99.90;;;;;;5052574;28;20151;-80
2022/09/30 06:46:23;;;;;;;7.13;4.30;;;7.80;99.90;;;;;;5051319;28;20188;-80
2022/09/30 06:48:57;;;;;;;5.35;4.10;;;7.90;99.90;;;;;;5052109;28;20079;-79
2022/09/30 06:51:25;;;;;;;12.90;5.57;;;8.30;99.90;;;;;;5053434;28;20052;-81
2022/09/30 06:53:52;;;;;;;5.63;4.40;;;7.90;99.90;;;;;;5052406;28;20124;-81
2022/09/30 06:56:18;;;;;;;5.70;4.63;;;8.00;99.90;;;;;;5052530;28;20138;-80
2022/09/30 06:58:45;;;;;;;5.07;4.05;;;8.00;99.90;;;;;;5053640;28;20047;-81
2022/09/30 07:01:14;;;;;;;6.05;4.60;;;8.10;99.90;;;;;;5047254;28;20056;-79
2022/09/30 07:03:43;;;;;;;6.15;5.57;;;8.20;99.90;;;;;;5043888;28;20055;-79
2022/09/30 07:06:11;;;;;;;5.97;5.38;;;8.20;99.90;;;;;;5045819;28;20045;-80
2022/09/30 07:08:37;;;;;;;7.70;5.72;;;8.40;99.90;;;;;;5052957;28;20051;-81
2022/09/30 07:11:13;;;;;;;6.18;5.68;;;7.70;99.90;;;;;;5052773;28;20048;-81
2022/09/30 07:13:44;;;;;;;5.38;4.88;;;8.70;99.90;;;;;;5050750;28;20056;-81
2022/09/30 07:16:12;;;;;;;5.53;5.00;;;8.80;99.90;;;;;;5052312;28;20041;-81
2022/09/30 07:18:41;;;;;;;8.57;5.32;;;9.00;99.90;;;;;;5053106;28;20054;-82
2022/09/30 07:21:07;;;;;;;5.80;4.78;;;9.10;99.90;;;;;;5054268;28;20066;-79
2022/09/30 07:23:33;;;;;;;6.00;5.43;;;9.20;99.90;;;;;;5051608;28;20052;-79
2022/09/30 07:26:03;;;;;;;8.05;6.18;;;8.80;99.90;;;;;;5052905;28;20109;-80
2022/09/30 07:28:32;;;;;;;13.20;7.10;;;9.30;99.90;;;;;;5056112;28;20040;-80
2022/09/30 07:31:01;;;;;;;6.85;5.90;;;9.20;99.90;;;;;;5060561;28;20134;-81
2022/09/30 07:33:29;;;;;;;7.05;6.40;;;9.20;99.90;;;;;;5054828;28;20048;-80
2022/09/30 07:35:56;;;;;;;7.93;7.03;;;9.30;99.90;;;;;;5056491;28;20446;-81
2022/09/30 07:38:24;;;;;;;8.48;6.75;;;9.20;99.90;;;;;;5057210;28;20053;-80
2022/09/30 07:40:52;;;;;;;7.82;7.03;;;9.30;99.90;;;;;;5056258;28;20044;-81
2022/09/30 07:43:19;;;;;;;8.52;6.63;;;9.40;99.90;;;;;;5057208;28;20044;-80
2022/09/30 07:45:44;;;;;;;7.10;6.32;;;9.50;99.90;;;;;;5058100;28;20048;-80
2022/09/30 07:48:38;;;;;;;7.45;6.75;;;9.60;99.90;;;;;;5057641;28;20618;-82
2022/09/30 07:50:56;;;;;;;12.70;7.22;;;9.80;99.90;;;;;;5058159;28;20060;-82
2022/09/30 07:53:22;;;;;;;11.10;7.32;;;10.00;99.90;;;;;;5089691;28;20048;-81
2022/09/30 07:55:47;;;;;;;8.57;6.07;;;10.20;99.90;;;;;;5058804;28;20166;-82
2022/09/30 07:58:13;;;;;;;7.28;6.53;;;10.40;99.90;;;;;;5088951;28;20045;-82
2022/09/30 08:00:38;;;;;;;6.43;5.82;;;10.50;99.90;;;;;;5059108;28;20473;-81
2022/09/30 08:03:04;;;;;;;6.07;5.55;;;10.70;99.90;;;;;;5060071;28;20056;-82
2022/09/30 08:05:30;;;;;;;5.25;4.75;;;10.90;99.90;;;;;;5058435;28;20044;-82
2022/09/30 08:07:56;;;;;;;5.68;4.78;;;11.30;99.90;;;;;;5056677;28;20181;-83
2022/09/30 08:10:21;;;;;;;4.60;4.20;;;12.10;99.90;;;;;;5059853;28;20052;-81
2022/09/30 08:12:47;;;;;;;4.68;4.13;;;13.10;99.90;;;;;;5089506;28;20071;-82
2022/09/30 08:15:12;;;;;;;4.93;4.43;;;14.50;99.90;;;;;;5087956;28;20072;-82
2022/09/30 08:17:38;;;;;;;6.82;4.82;;;15.90;99.90;;;;;;5057786;28;20110;-82
2022/09/30 08:20:04;;;;;;;4.43;3.92;;;17.30;99.90;;;;;;5073548;28;20070;-84
2022/09/30 08:22:30;;;;;;;4.82;4.25;;;18.20;99.90;;;;;;5057169;28;20063;-84
2022/09/30 08:24:55;;;;;;;6.03;5.13;;;19.00;99.90;;;;;;5071732;28;20048;-84
2022/09/30 08:27:21;;;;;;;5.35;4.85;;;19.90;99.90;;;;;;5058608;28;20052;-84
2022/09/30 08:29:47;;;;;;;6.07;4.93;;;20.30;99.90;;;;;;5065309;28;20506;-83
2022/09/30 08:32:12;;;;;;;5.90;4.68;;;20.80;99.90;;;;;;5057765;28;20053;-84
2022/09/30 08:34:38;;;;;;;4.85;4.43;;;21.30;99.90;;;;;;5052863;28;20045;-84
2022/09/30 08:37:04;;;;;;;6.28;4.43;;;21.30;99.90;;;;;;5054166;28;20767;-84
2022/09/30 08:39:29;;;;;;;5.32;4.80;;;21.20;99.90;;;;;;5058652;28;20047;-85
2022/09/30 08:42:04;;;;;;;5.32;4.82;;;21.50;99.90;;;;;;5089748;28;20052;-83
2022/09/30 08:44:47;;;;;;;4.60;4.20;;;21.60;99.90;;;;;;5057966;28;20056;-82
2022/09/30 08:47:32;;;;;;;7.60;5.07;;;21.70;95.70;;;;;;5055118;28;20396;-83
2022/09/30 08:50:15;;;;;;;4.88;4.35;;;21.00;98.00;;;;;;5057107;28;20083;-81
2022/09/30 08:52:46;;;;;;;5.90;5.07;;;20.70;95.80;;;;;;5056935;28;20055;-84
2022/09/30 08:55:22;;;;;;;7.60;6.13;;;19.90;99.90;;;;;;5057457;28;20493;-88
2022/09/30 08:57:50;;;;;;;7.03;5.70;;;18.80;99.90;;;;;;5057477;28;20131;-82
2022/09/30 09:00:17;;;;;;;6.07;5.07;;;18.00;99.90;;;;;;5059772;28;20131;-84
2022/09/30 09:02:54;;;;;;;6.68;5.60;;;18.00;99.90;;;;;;5056573;28;20059;-81
2022/09/30 09:05:53;;;;;;;5.28;4.20;;;18.60;99.90;;;;;;5090557;28;20797;-83
2022/09/30 09:09:00;;;;;;;6.10;4.30;;;18.00;99.90;;;;;;5044431;28;20056;-83
2022/09/30 09:11:52;;;;;;;5.05;4.18;;;17.90;99.90;;;;;;5051764;28;20178;-83
2022/09/30 09:14:48;;;;;;;5.93;4.60;;;18.20;99.90;;;;;;5042436;28;20099;-84
2022/09/30 09:17:26;;;;;;;5.80;4.82;;;18.90;99.90;;;;;;5051999;28;20044;-83
2022/09/30 09:20:13;;;;;;;4.80;4.40;;;19.60;99.90;;;;;;5050500;28;20571;-82
2022/09/30 09:22:39;;;;;;;5.00;4.03;;;19.80;98.40;;;;;;5051727;28;20044;-83
2022/09/30 09:25:05;;;;;;;5.15;4.13;;;19.90;99.90;;;;;;5053659;28;20047;-83
2022/09/30 09:27:44;;;;;;;4.32;3.72;;;19.80;99.20;;;;;;5049818;28;20168;-83
2022/09/30 09:30:17;;;;;;;4.95;4.00;;;20.20;99.90;;;;;;5046104;28;20052;-83
2022/09/30 09:32:48;;;;;;;3.88;3.35;;;20.40;99.90;;;;;;5084206;28;20052;-81
2022/09/30 09:35:20;;;;;;;4.10;3.67;;;20.70;99.40;;;;;;5056668;28;20927;-84
2022/09/30 09:41:11;;;;;;;4.57;3.67;;;21.30;98.40;;;;;;5057028;28;20405;-81
2022/09/30 09:44:01;;;;;;;4.15;3.47;;;21.70;97.20;;;;;;5053093;28;20044;-82
2022/09/30 09:46:33;;;;;;;5.28;3.70;;;21.90;97.50;;;;;;5050065;28;20052;-82
2022/09/30 09:49:27;;;;;;;4.32;3.92;;;22.20;97.50;;;;;;5044445;28;20045;-81
2022/09/30 09:52:22;;;;;;;4.70;3.78;;;22.60;94.80;;;;;;5050407;28;20056;-82
2022/09/30 09:54:51;;;;;;;6.45;4.25;;;22.60;96.40;;;;;;5052922;28;20044;-82
2022/09/30 09:57:23;;;;;;;4.30;3.90;;;22.80;96.30;;;;;;5078822;27;20876;-80
2022/09/30 10:03:11;;;;;;;4.43;3.90;;;22.50;93.40;;;;;;5051937;28;20587;-81
2022/09/30 10:05:40;;;;;;;5.03;4.53;;;22.40;92.80;;;;;;5052018;28;20044;-81
2022/09/30 10:08:24;;;;;;;6.70;5.10;;;22.80;95.40;;;;;;5049541;28;20141;-81
2022/09/30 10:11:17;;;;;;;5.90;5.30;;;22.90;92.80;;;;;;5051765;28;20041;-81
2022/09/30 10:13:44;;;;;;;6.67;5.60;;;23.20;92.10;;;;;;5052052;28;20127;-81
2022/09/30 10:16:36;;;;;;;6.60;4.85;;;23.40;93.60;;;;;;5085794;28;20853;-82
2022/09/30 10:19:22;;;;;;;6.32;5.40;;;24.10;91.80;;;;;;5052115;28;20805;-84
2022/09/30 10:21:48;;;;;;;5.68;4.68;;;24.40;92.50;;;;;;5050891;28;20044;-82
2022/09/30 10:24:27;;;;;;;5.80;4.50;;;25.20;92.80;;;;;;5052169;28;20570;-82
2022/09/30 10:26:53;;;;;;;7.00;4.85;;;25.10;89.20;;;;;;5050739;28;20310;-81
2022/09/30 10:29:28;;;;;;;5.70;4.25;;;24.10;91.70;;;;;;5054258;28;20511;-82
2022/09/30 10:31:55;;;;;;;3.80;3.35;;;24.00;91.50;;;;;;5051754;28;20785;-81
2022/09/30 10:34:30;;;;;;;3.88;3.58;;;23.40;92.10;;;;;;5051549;28;20044;-80
2022/09/30 10:37:01;;;;;;;4.57;3.42;;;23.00;92.30;;;;;;5051213;28;20040;-82
2022/09/30 10:39:36;;;;;;;5.50;3.60;;;22.10;93.80;;;;;;5054866;28;20049;-81
2022/09/30 10:42:17;;;;;;;3.22;2.90;;;20.90;94.70;;;;;;5051772;28;20122;-81
2022/09/30 10:44:46;;;;;;;2.47;2.28;;;19.80;94.80;;;;;;5054624;28;20156;-80
2022/09/30 10:47:21;;;;;;;3.17;2.72;;;19.30;96.40;;;;;;5055499;28;20537;-81
2022/09/30 10:49:52;;;;;;;2.63;1.95;;;18.70;96.10;;;;;;5053046;28;20090;-82
2022/09/30 10:52:23;;;;;;;1.83;1.70;;;18.30;96.70;;;;;;5053519;28;20049;-81
2022/09/30 10:54:55;;;;;;;2.55;2.00;;;17.80;96.70;;;;;;5053212;28;20056;-81
2022/09/30 10:57:37;;;;;;;1.85;1.75;;;17.50;97.60;;;;;;5051538;28;20049;-82
2022/09/30 11:00:17;;;;;;;2.60;1.52;;;17.20;97.90;;;;;;5049658;28;20060;-82
2022/09/30 11:03:13;;;;;;;1.88;1.70;;;17.10;99.90;;;;;;5050353;28;20045;-84
2022/09/30 11:05:44;;;;;;;1.50;1.40;;;17.10;99.90;;;;;;5059135;28;20032;-84
2022/09/30 11:08:18;;;;;;;3.35;1.70;;;17.10;99.80;;;;;;5046068;28;20049;-81
2022/09/30 11:10:50;;;;;;;4.55;2.10;;;17.00;99.80;;;;;;5048831;28;20412;-80
2022/09/30 11:13:21;;;;;;;1.75;1.65;;;17.00;99.90;;;;;;5055543;28;20106;-81
2022/09/30 11:16:12;;;;;;;2.28;1.58;;;16.90;99.80;;;;;;5052162;28;20572;-81
2022/09/30 11:19:07;;;;;;;1.70;1.35;;;16.90;99.90;;;;;;5054263;28;20049;-80
2022/09/30 11:21:41;;;;;;;3.03;1.60;;;16.90;99.90;;;;;;5047534;28;20501;-83
2022/09/30 11:24:13;;;;;;;3.25;2.95;;;16.90;99.90;;;;;;5051684;28;20586;-81
2022/09/30 11:27:04;;;;;;;2.00;1.80;;;16.90;99.70;;;;;;5058526;28;20792;-81
2022/09/30 11:29:54;;;;;;;4.07;1.90;;;16.80;99.30;;;;;;5058214;28;20149;-82
2022/09/30 11:32:28;;;;;;;2.42;2.10;;;16.60;99.30;;;;;;5042266;28;20075;-81
2022/09/30 11:35:12;;;;;;;2.50;2.30;;;16.70;99.60;;;;;;5047147;28;20076;-80
2022/09/30 11:38:00;;;;;;;3.17;2.38;;;16.70;99.90;;;;;;5057769;28;20040;-79
2022/09/30 11:40:34;;;;;;;3.45;2.13;;;16.70;99.90;;;;;;5059580;28;20059;-80
2022/09/30 11:43:06;;;;;;;3.35;2.25;;;16.80;99.90;;;;;;5055866;28;20512;-80
2022/09/30 11:45:52;;;;;;;2.35;2.15;;;16.90;99.90;;;;;;5050140;28;20177;-80
2022/09/30 11:48:54;;;;;;;3.17;2.08;;;16.90;99.90;;;;;;5056662;28;20049;-80
2022/09/30 11:51:44;;;;;;;3.42;1.92;;;16.90;98.00;;;;;;5055274;28;20041;-82
2022/09/30 11:54:19;;;;;;;3.75;2.58;;;16.80;99.10;;;;;;5057852;28;20059;-79
2022/09/30 11:57:01;;;;;;;1.83;1.73;;;16.70;99.20;;;;;;5056917;28;20082;-79
2022/09/30 11:59:32;;;;;;;2.75;1.85;;;16.70;99.20;;;;;;5042995;28;20152;-78
2022/09/30 12:02:03;;;;;;;3.20;2.08;;;16.50;99.70;;;;;;5052410;28;20044;-80
2022/09/30 12:04:40;;;;;;;2.22;1.63;;;16.70;99.90;;;;;;5042332;28;20048;-81
2022/09/30 12:07:28;;;;;;;2.35;1.80;;;16.70;99.90;;;;;;5055910;28;20044;-80
2022/09/30 12:10:04;;;;;;;1.60;1.50;;;16.60;99.40;;;;;;5046728;28;20055;-80
2022/09/30 12:12:31;;;;;;;2.25;2.05;;;16.60;98.70;;;;;;5054492;28;20094;-79
2022/09/30 12:15:06;;;;;;;2.28;1.75;;;16.50;99.20;;;;;;5054477;28;20060;-80
2022/09/30 12:17:59;;;;;;;2.80;2.05;;;16.50;99.40;;;;;;5054790;28;20167;-81
2022/09/30 12:20:42;;;;;;;2.33;1.77;;;16.50;99.10;;;;;;5046766;28;20041;-80
2022/09/30 12:23:19;;;;;;;2.30;1.70;;;16.60;99.80;;;;;;5055315;28;20746;-80
2022/09/30 12:26:05;;;;;;;1.58;1.48;;;16.80;99.90;;;;;;5056556;28;20105;-81
2022/09/30 12:32:09;;;;;;;2.40;1.70;;;17.20;98.70;;;;;;5057719;28;20059;-80
2022/09/30 12:35:16;;;;;;;1.90;1.67;;;17.40;98.40;;;;;;5053108;28;20155;-81
2022/09/30 12:38:08;;;;;;;2.50;1.80;;;17.30;97.80;;;;;;5054160;28;20057;-79
2022/09/30 12:40:54;;;;;;;2.55;1.90;;;17.30;97.30;;;;;;5060109;28;20052;-80
2022/09/30 12:43:27;;;;;;;3.30;2.20;;;17.40;97.50;;;;;;5058005;28;20059;-79
2022/09/30 12:46:02;;;;;;;2.90;1.80;;;17.40;97.40;;;;;;5045015;28;20057;-82
2022/09/30 12:48:40;;;;;;;3.10;2.17;;;17.50;98.30;;;;;;5054692;28;20063;-82
2022/09/30 12:51:07;;;;;;;2.97;2.05;;;17.50;97.00;;;;;;5059107;28;20178;-81
2022/09/30 12:53:39;;;;;;;2.60;2.00;;;17.60;97.90;;;;;;5053794;28;20055;-80
2022/09/30 12:56:09;;;;;;;2.28;2.08;;;17.70;98.20;;;;;;5056723;28;20051;-80
2022/09/30 12:58:48;;;;;;;2.78;2.00;;;17.60;97.60;;;;;;5055584;28;20044;-84
2022/09/30 13:01:34;;;;;;;2.55;1.77;;;17.60;98.10;;;;;;5055083;28;20131;-83
2022/09/30 13:03:59;;;;;;;2.63;2.42;;;17.50;96.40;;;;;;5056163;28;20124;-81
2022/09/30 13:06:44;;;;;;;2.78;2.50;;;17.60;97.10;;;;;;5056105;28;20755;-81
2022/09/30 13:09:15;;;;;;;3.65;3.35;;;17.70;97.00;;;;;;5053087;28;20049;-81
2022/09/30 13:11:43;;;;;;;5.20;3.22;;;17.60;97.20;;;;;;5088519;28;20069;-82
2022/09/30 13:14:44;;;;;;;5.28;3.50;;;17.50;98.10;;;;;;5057014;28;20076;-82
2022/09/30 13:17:10;;;;;;;4.07;3.05;;;17.40;97.90;;;;;;5055809;28;20049;-82
2022/09/30 13:19:40;;;;;;;3.67;3.35;;;17.40;98.30;;;;;;5055505;28;20052;-80
2022/09/30 13:22:19;;;;;;;3.97;3.60;;;17.30;98.40;;;;;;5055180;28;20048;-81
2022/09/30 13:25:01;;;;;;;5.13;4.25;;;17.30;98.30;;;;;;5056282;28;20118;-80
2022/09/30 13:27:36;;;;;;;3.90;3.50;;;17.20;98.50;;;;;;5055224;28;20044;-80
2022/09/30 13:30:24;;;;;;;5.55;3.75;;;17.20;99.00;;;;;;5055909;28;20853;-81
2022/09/30 13:32:58;;;;;;;5.43;4.05;;;17.10;98.40;;;;;;5069323;28;20138;-81
2022/09/30 13:35:50;;;;;;;4.63;3.67;;;17.20;98.90;;;;;;5054461;28;20116;-80